Aviation Digital Data Service (ADDS)

Output produced by METARs form (1610 UTC 01 August 2015)
found at http://www.aviationweather.gov/adds/metars/
 
KJST 011554Z AUTO 27011G15KT 10SM SCT036 BKN048 BKN060 22/13 A2999 RMK AO2 SLP141 T02220133
KJST 011454Z AUTO 26007KT 10SM SCT028 22/13 A2998 RMK AO2 SLP136 T02170133 53007
KJST 011354Z AUTO 29011G15KT 10SM FEW023 FEW065 21/14 A2997 RMK AO2 SLP133 T02060139
KJST 011254Z AUTO 27009KT 10SM BKN065 20/14 A2996 RMK AO2 SLP130 T02000139
KJST 011154Z AUTO 26007KT 10SM OVC075 19/14 A2995 RMK AO2 SLP128 T01890144 10189 20178 51010
KJST 011054Z AUTO 26006KT 10SM SCT065 OVC080 18/14 A2994 RMK AO2 SLP124 T01830139
KJST 010954Z AUTO 22004KT 10SM BKN060 BKN080 OVC090 18/14 A2994 RMK AO2 SLP122 T01780139
KJST 010854Z AUTO 22005KT 10SM BKN070 19/14 A2992 RMK AO2 SLP117 T01890139 58008
KJST 010754Z AUTO 21005KT 10SM FEW050 BKN080 OVC090 19/14 A2993 RMK AO2 SLP120 T01890139
KJST 010654Z AUTO 24006KT 10SM FEW050 18/14 A2994 RMK AO2 SLP123 T01780139
KJST 010554Z AUTO 21006KT 10SM SCT060 19/14 A2995 RMK AO2 SLP124 T01890139 10239 20189 58006
KJST 010454Z AUTO 21005KT 10SM SCT090 19/13 A2995 RMK AO2 SLP128 T01940133 402670172
KJST 010354Z AUTO 23006KT 10SM CLR 19/13 A2996 RMK AO2 SLP130 T01940133
KJST 010254Z AUTO 23006KT 10SM CLR 20/13 A2996 RMK AO2 SLP132 T02000133 53005
KJST 010154Z AUTO 23006KT 10SM CLR 21/13 A2996 RMK AO2 SLP130 T02110133
KJST 010054Z AUTO 26007KT 10SM CLR 22/13 A2995 RMK AO2 SLP126 T02170133
KJST 312354Z AUTO 25008KT 10SM SCT060 OVC075 24/13 A2995 RMK AO2 SLP127 T02390133 10267 20233 55007
KJST 312254Z AUTO 26014G19KT 10SM FEW060 25/13 A2995 RMK AO2 SLP125 T02500133
KJST 312154Z AUTO 25010G19KT 10SM SCT055 BKN090 26/12 A2996 RMK AO2 SLP129 T02560122
KJST 312054Z AUTO 24012KT 10SM BKN090 26/13 A2997 RMK AO2 SLP134 T02560128 58012
KJST 311954Z AUTO 24012KT 10SM FEW050 SCT080 27/13 A2998 RMK AO2 SLP137 T02670128
KJST 311854Z AUTO 25009KT 210V290 10SM SCT049 SCT065 27/13 A3000 RMK AO2 SLP142 T02670128
KJST 311754Z AUTO 26009KT 230V290 10SM FEW049 SCT060 26/13 A3001 RMK AO2 SLP147 T02610128 10261 20189 58012
KJST 311654Z AUTO 28005KT 10SM SCT044 SCT055 24/13 A3003 RMK AO2 SLP154 T02390128
KJST 311554Z AUTO 28006KT 10SM SCT039 24/13 A3004 RMK AO2 SLP157 T02390133
KJST 311454Z AUTO 30008KT 10SM CLR 23/14 A3005 RMK AO2 SLP159 T02280139 51001
KJST 311354Z AUTO 30008KT 10SM CLR 22/14 A3004 RMK AO2 SLP159 T02170139
KJST 311254Z AUTO 28006KT 10SM CLR 20/14 A3005 RMK AO2 SLP162 T02000139
KJST 311154Z AUTO 28006KT 10SM CLR 19/13 A3004 RMK AO2 SLP159 70005 T01890133 10189 20172 53011
KJST 311054Z AUTO 26005KT 10SM CLR 18/13 A3003 RMK AO2 SLP153 T01780133
KJST 310954Z AUTO 28006KT 10SM CLR 18/13 A3001 RMK AO2 SLP148 T01780128
KJST 310854Z AUTO 29010KT 10SM CLR 18/12 A3001 RMK AO2 SLP145 T01830122 55006
KJST 310754Z AUTO 29009KT 10SM CLR 18/13 A3001 RMK AO2 SLP145 T01830128
KJST 310654Z AUTO 29008KT 10SM FEW050 18/12 A3002 RMK AO2 SLP148 T01830117
KJST 310554Z AUTO 23004KT 10SM FEW050 18/12 A3003 RMK AO2 SLP153 T01780122 10239 20172 58001
KJST 310454Z AUTO 00000KT 10SM FEW050 18/12 A3004 RMK AO2 SLP156 T01830117 402720178